Time;durP1;ratioP1;P1;durP2;ratioP2;P2;SDS_P1;SDS_P2;PMS_P1;PMS_P2;Temp;Humidity;BMP_temperature;BMP_pressure;BME280_temperature;BME280_humidity;BME280_pressure;Samples;Min_cycle;Max_cycle;Signal;HPM_P1;HPM_P2
2021/04/21 00:01:30;;;;;;;46.25;30.65;;;7.30;99.90;;;;;;6070888;23;20184;-77
2021/04/21 00:08:02;;;;;;;38.75;28.83;;;7.30;99.90;;;;;;6124059;23;20216;-77
2021/04/21 00:18:19;;;;;;;39.28;28.27;;;7.20;99.90;;;;;;6207193;22;20216;-77
2021/04/21 00:21:51;;;;;;;43.00;29.20;;;7.10;99.90;;;;;;6194692;23;20232;-77
2021/04/21 00:25:17;;;;;;;36.20;25.80;;;7.20;99.90;;;;;;6167800;23;20157;-77
2021/04/21 00:56:05;;;;;;;;;;;;;;;;;;;;;
2021/04/21 00:59:10;;;;;;;;;;;;;;;;;;;;;
2021/04/21 01:30:37;;;;;;;54.58;34.13;;;6.90;99.90;;;;;;6245746;23;20664;-76
2021/04/21 01:33:32;;;;;;;46.13;32.83;;;7.00;99.90;;;;;;6220474;23;20182;-76
2021/04/21 01:36:28;;;;;;;44.17;31.92;;;7.00;99.90;;;;;;6230530;22;20267;-76
2021/04/21 01:38:59;;;;;;;46.15;33.35;;;7.00;99.90;;;;;;6220887;23;20168;-76
2021/04/21 01:42:18;;;;;;;;;;;;;;;;;;;;;
2021/04/21 02:03:24;;;;;;;;;;;;;;;;;;;;;
2021/04/21 02:06:28;;;;;;;40.50;29.50;;;7.30;99.90;;;;;;6202927;22;20689;-76
2021/04/21 02:09:37;;;;;;;44.90;30.67;;;7.30;99.90;;;;;;6247540;23;20511;-78
2021/04/21 02:12:38;;;;;;;;;;;;;;;;;;;;;
2021/04/21 02:15:22;;;;;;;45.97;32.40;;;7.30;99.90;;;;;;6246771;23;20218;-78
2021/04/21 02:18:03;;;;;;;39.35;29.48;;;7.30;99.90;;;;;;6220212;23;20151;-78
2021/04/21 02:20:51;;;;;;;38.97;28.00;;;7.30;99.90;;;;;;6220377;23;20234;-78
2021/04/21 02:23:35;;;;;;;43.03;29.35;;;7.20;99.90;;;;;;6247089;23;20506;-78
2021/04/21 02:26:59;;;;;;;38.97;29.55;;;7.30;99.90;;;;;;6219765;23;20172;-78
2021/04/21 02:29:52;;;;;;;34.45;26.13;;;7.30;99.90;;;;;;6128989;23;20155;-76
2021/04/21 02:32:32;;;;;;;43.78;27.67;;;7.30;99.90;;;;;;6129824;23;20481;-78
2021/04/21 02:35:13;;;;;;;35.42;27.13;;;7.30;99.90;;;;;;6213258;23;20162;-77
2021/04/21 02:38:11;;;;;;;38.00;26.23;;;7.40;99.90;;;;;;6247069;23;20133;-78
2021/04/21 02:41:07;;;;;;;46.28;31.63;;;7.40;99.90;;;;;;6247013;23;20514;-78
2021/04/21 02:44:12;;;;;;;39.97;30.77;;;7.40;99.90;;;;;;6219759;23;20582;-78
2021/04/21 02:46:57;;;;;;;38.40;29.60;;;7.40;99.90;;;;;;6246756;22;20171;-78
2021/04/21 02:49:58;;;;;;;35.05;24.55;;;7.40;99.90;;;;;;6246948;23;20305;-78
2021/04/21 02:53:16;;;;;;;35.47;27.35;;;7.40;99.90;;;;;;6241821;23;20287;-78
2021/04/21 02:56:15;;;;;;;41.45;28.38;;;7.20;99.90;;;;;;6219363;23;20498;-78
2021/04/21 02:59:21;;;;;;;46.17;26.58;;;7.30;99.90;;;;;;6219656;23;20644;-78
2021/04/21 03:02:10;;;;;;;39.67;28.92;;;7.30;99.90;;;;;;6246603;23;20183;-77
2021/04/21 03:05:18;;;;;;;43.95;31.88;;;7.30;99.90;;;;;;6246390;23;20478;-77
2021/04/21 03:11:24;;;;;;;40.63;28.38;;;7.30;99.90;;;;;;6246678;23;20197;-77
2021/04/21 03:14:32;;;;;;;41.15;30.05;;;7.30;99.90;;;;;;6246634;23;20202;-78
2021/04/21 03:17:29;;;;;;;36.60;27.52;;;7.20;99.90;;;;;;6245866;22;20475;-78
2021/04/21 03:20:17;;;;;;;35.72;27.73;;;7.30;99.90;;;;;;6246556;23;20152;-77
2021/04/21 03:22:56;;;;;;;35.78;26.35;;;7.20;99.90;;;;;;6219954;23;20632;-77
2021/04/21 03:25:31;;;;;;;36.78;28.17;;;7.30;99.90;;;;;;6246211;22;20136;-77
2021/04/21 03:28:00;;;;;;;38.80;29.27;;;7.30;99.90;;;;;;6246529;23;20120;-78
2021/04/21 03:30:34;;;;;;;41.83;30.20;;;7.20;99.90;;;;;;6246416;23;20155;-77
2021/04/21 03:33:19;;;;;;;37.55;29.33;;;7.20;99.90;;;;;;6246628;23;20153;-78
2021/04/21 03:36:13;;;;;;;39.45;30.33;;;7.30;99.90;;;;;;6246141;22;20187;-77
2021/04/21 03:38:42;;;;;;;40.03;29.98;;;7.40;99.90;;;;;;6219246;23;20581;-77
2021/04/21 03:41:08;;;;;;;39.22;28.15;;;7.30;99.90;;;;;;6246220;23;20203;-77
2021/04/21 03:43:34;;;;;;;36.95;29.20;;;7.40;99.90;;;;;;6246497;23;20145;-77
2021/04/21 03:46:01;;;;;;;38.97;29.27;;;7.40;99.90;;;;;;6245987;22;20597;-77
2021/04/21 03:48:27;;;;;;;41.80;30.92;;;7.40;99.90;;;;;;6219497;23;20290;-77
2021/04/21 03:50:55;;;;;;;38.42;29.92;;;7.50;99.90;;;;;;6219633;23;20181;-77
2021/04/21 03:53:28;;;;;;;40.13;29.40;;;7.50;99.90;;;;;;6246364;23;20462;-77
2021/04/21 03:56:08;;;;;;;39.53;29.45;;;7.50;99.90;;;;;;6245566;22;20223;-77
2021/04/21 03:59:26;;;;;;;41.15;29.70;;;7.40;99.90;;;;;;6245897;23;20144;-77
2021/04/21 04:01:55;;;;;;;41.50;28.52;;;7.50;99.90;;;;;;6245943;23;20275;-77
2021/04/21 04:04:21;;;;;;;40.58;29.98;;;7.40;99.90;;;;;;6246136;23;20141;-77
2021/04/21 04:06:53;;;;;;;38.67;29.05;;;7.30;99.90;;;;;;6218997;23;20168;-77
2021/04/21 04:09:22;;;;;;;39.35;29.52;;;7.40;99.90;;;;;;6219650;23;20149;-77
2021/04/21 04:11:59;;;;;;;35.25;27.05;;;7.40;99.90;;;;;;6219047;23;20608;-78
2021/04/21 04:14:30;;;;;;;40.65;30.92;;;7.40;99.90;;;;;;6221158;23;20133;-78
2021/04/21 04:16:58;;;;;;;37.65;29.20;;;7.30;99.90;;;;;;6246225;22;20495;-77
2021/04/21 04:19:24;;;;;;;36.63;27.20;;;7.40;99.90;;;;;;6219363;23;20163;-78
2021/04/21 04:22:06;;;;;;;42.30;29.17;;;7.40;99.90;;;;;;6245702;23;20211;-77
2021/04/21 04:24:56;;;;;;;41.63;30.38;;;7.40;99.90;;;;;;6218804;23;20551;-78
2021/04/21 04:27:25;;;;;;;43.33;33.35;;;7.40;99.90;;;;;;6234893;23;20625;-78
2021/04/21 04:29:53;;;;;;;33.70;28.02;;;7.40;99.90;;;;;;6246034;23;20149;-77
2021/04/21 04:32:21;;;;;;;47.05;30.30;;;7.40;99.90;;;;;;6245773;23;20152;-78
2021/04/21 04:34:49;;;;;;;43.13;32.65;;;7.50;99.90;;;;;;6218486;23;20667;-78
2021/04/21 04:37:17;;;;;;;36.00;29.15;;;7.50;99.90;;;;;;6245837;22;20242;-78
2021/04/21 04:39:43;;;;;;;40.38;30.65;;;7.50;99.90;;;;;;6246390;23;20145;-78
2021/04/21 04:42:10;;;;;;;41.15;29.60;;;7.40;99.90;;;;;;6219400;23;20210;-78
2021/04/21 04:44:37;;;;;;;40.58;31.05;;;7.50;99.90;;;;;;6218844;23;20156;-77
2021/04/21 04:47:10;;;;;;;40.85;30.40;;;7.50;99.90;;;;;;6194094;23;20180;-77
2021/04/21 04:50:01;;;;;;;39.17;29.70;;;7.60;99.90;;;;;;6245753;23;20152;-78
2021/04/21 04:52:29;;;;;;;43.35;30.60;;;7.50;99.90;;;;;;6202873;23;20152;-78
2021/04/21 04:54:56;;;;;;;43.95;32.75;;;7.60;99.90;;;;;;6218976;23;20153;-77
2021/04/21 04:57:23;;;;;;;47.00;34.40;;;7.60;99.90;;;;;;6194301;23;20179;-78
2021/04/21 04:59:53;;;;;;;44.20;31.40;;;7.50;99.90;;;;;;6246260;23;20227;-77
2021/04/21 05:02:20;;;;;;;45.13;32.38;;;7.30;99.90;;;;;;6219752;23;20188;-78
2021/04/21 05:04:57;;;;;;;48.45;32.90;;;7.40;99.90;;;;;;6245412;23;20168;-78
2021/04/21 05:07:33;;;;;;;44.53;31.75;;;7.40;99.90;;;;;;6247188;22;20377;-77
2021/04/21 05:10:03;;;;;;;50.13;35.78;;;7.50;99.90;;;;;;6248111;23;20133;-78
2021/04/21 05:12:31;;;;;;;42.50;33.25;;;7.50;99.90;;;;;;6247689;23;20187;-78
2021/04/21 05:14:59;;;;;;;45.05;31.75;;;7.70;99.90;;;;;;6247532;23;20149;-77
2021/04/21 05:17:44;;;;;;;42.17;31.85;;;7.70;99.90;;;;;;6247846;22;20172;-77
2021/04/21 05:20:32;;;;;;;43.92;31.10;;;7.70;99.90;;;;;;6247240;23;20164;-76
2021/04/21 05:23:21;;;;;;;44.85;31.80;;;7.70;99.90;;;;;;6247625;23;20171;-76
2021/04/21 05:26:11;;;;;;;44.42;32.60;;;7.70;99.90;;;;;;6247178;22;20167;-76
2021/04/21 05:29:09;;;;;;;44.05;32.40;;;7.60;99.90;;;;;;6247734;23;20122;-76
2021/04/21 05:32:09;;;;;;;45.05;32.67;;;7.50;99.90;;;;;;6247808;23;20451;-78
2021/04/21 05:35:13;;;;;;;48.08;34.30;;;7.30;99.90;;;;;;6247366;23;20130;-78
2021/04/21 05:37:57;;;;;;;51.30;35.60;;;7.30;99.90;;;;;;6247874;23;20137;-78
2021/04/21 05:40:44;;;;;;;58.97;38.47;;;7.40;99.90;;;;;;6247266;23;20153;-77
2021/04/21 05:43:30;;;;;;;54.90;38.65;;;7.50;99.90;;;;;;6247251;23;20493;-78
2021/04/21 05:46:19;;;;;;;53.80;38.88;;;7.60;99.90;;;;;;6247097;22;20164;-77
2021/04/21 05:49:20;;;;;;;60.65;38.00;;;7.50;99.90;;;;;;6220536;23;20189;-78
2021/04/21 05:51:57;;;;;;;54.78;40.08;;;7.50;99.90;;;;;;6220705;23;20647;-77
2021/04/21 05:55:04;;;;;;;57.83;41.63;;;7.40;99.90;;;;;;6247318;23;20140;-77
2021/04/21 05:57:49;;;;;;;59.45;39.97;;;7.30;99.90;;;;;;6191376;23;20221;-77
2021/04/21 06:00:33;;;;;;;65.53;41.60;;;7.40;99.90;;;;;;6247210;23;20141;-77
2021/04/21 06:03:00;;;;;;;65.20;47.08;;;7.50;99.90;;;;;;6247450;23;20169;-77
2021/04/21 06:05:26;;;;;;;73.80;46.58;;;7.50;99.90;;;;;;6220333;22;20224;-76
2021/04/21 06:07:52;;;;;;;68.57;45.30;;;7.40;99.90;;;;;;6220587;23;20704;-77
2021/04/21 06:10:27;;;;;;;71.53;48.10;;;7.50;99.90;;;;;;6247316;23;20199;-77
2021/04/21 06:13:03;;;;;;;73.13;46.83;;;7.50;99.90;;;;;;6247615;23;20171;-76
2021/04/21 06:15:38;;;;;;;73.30;45.95;;;7.50;99.90;;;;;;6246843;22;20163;-76
2021/04/21 06:18:07;;;;;;;72.05;43.95;;;7.60;99.90;;;;;;6246690;23;20132;-76
2021/04/21 06:20:44;;;;;;;78.40;46.90;;;7.70;99.90;;;;;;6247078;23;20598;-76
2021/04/21 06:23:21;;;;;;;73.88;47.70;;;7.70;99.90;;;;;;6247213;23;20251;-76
2021/04/21 06:25:58;;;;;;;83.85;51.80;;;7.70;99.90;;;;;;6246865;22;20168;-76
2021/04/21 06:28:25;;;;;;;72.88;49.63;;;7.60;99.90;;;;;;6247164;23;20171;-76
2021/04/21 06:31:06;;;;;;;93.93;54.85;;;7.70;99.90;;;;;;6247002;23;20141;-76
2021/04/21 06:33:36;;;;;;;84.53;50.70;;;7.80;99.90;;;;;;6247191;23;20542;-76
2021/04/21 06:36:03;;;;;;;83.88;50.20;;;7.80;99.90;;;;;;6246664;22;20165;-76
2021/04/21 06:38:30;;;;;;;85.72;52.97;;;7.80;99.90;;;;;;6246968;23;20156;-76
2021/04/21 06:40:56;;;;;;;94.82;56.42;;;7.80;99.90;;;;;;6246622;23;20175;-76
2021/04/21 06:43:24;;;;;;;101.93;57.35;;;7.80;99.90;;;;;;6247185;23;20521;-76
2021/04/21 06:45:51;;;;;;;107.55;59.58;;;8.00;99.90;;;;;;6219609;23;20256;-76
2021/04/21 06:48:28;;;;;;;104.15;57.13;;;8.10;99.90;;;;;;6220036;23;20202;-77
2021/04/21 06:50:55;;;;;;;98.30;57.40;;;8.30;99.90;;;;;;6247085;23;20553;-77
2021/04/21 06:53:29;;;;;;;103.10;59.25;;;8.40;99.90;;;;;;6247002;23;20566;-76
2021/04/21 06:55:56;;;;;;;108.68;64.05;;;8.50;99.90;;;;;;6219626;23;20351;-75
2021/04/21 06:58:22;;;;;;;110.05;66.32;;;8.60;99.90;;;;;;6247125;23;20440;-76
2021/04/21 07:00:48;;;;;;;101.53;62.03;;;8.70;99.90;;;;;;6246921;23;20145;-76
2021/04/21 07:03:18;;;;;;;123.75;67.20;;;8.60;99.90;;;;;;6219827;23;20639;-76
2021/04/21 07:05:45;;;;;;;101.65;61.00;;;8.60;99.90;;;;;;6246153;22;20525;-76
2021/04/21 07:08:12;;;;;;;109.28;63.92;;;8.70;99.90;;;;;;6246976;23;20181;-76
2021/04/21 07:10:44;;;;;;;119.97;71.40;;;8.80;99.90;;;;;;6247099;23;20225;-76
2021/04/21 07:13:24;;;;;;;120.93;73.85;;;8.90;99.90;;;;;;6246624;23;20191;-76
2021/04/21 07:15:53;;;;;;;125.10;75.38;;;8.90;99.90;;;;;;6246340;22;20675;-77
2021/04/21 07:18:21;;;;;;;132.50;81.72;;;9.00;99.90;;;;;;6219821;23;20153;-76
2021/04/21 07:20:47;;;;;;;107.65;67.45;;;9.10;99.90;;;;;;6246692;23;20156;-76
2021/04/21 07:23:19;;;;;;;107.25;64.90;;;9.10;99.90;;;;;;6246616;23;20183;-76
2021/04/21 07:25:49;;;;;;;104.10;65.38;;;9.20;99.90;;;;;;6246313;22;20590;-79
2021/04/21 07:28:17;;;;;;;104.97;66.35;;;9.30;99.90;;;;;;6246432;23;20149;-76
2021/04/21 07:30:42;;;;;;;115.80;72.65;;;9.30;99.90;;;;;;6246378;23;20157;-75
2021/04/21 07:33:09;;;;;;;119.50;74.67;;;9.20;99.90;;;;;;6246539;23;20522;-76
2021/04/21 07:35:35;;;;;;;115.50;72.10;;;9.40;99.90;;;;;;6246079;22;20430;-76
2021/04/21 07:38:02;;;;;;;122.45;74.75;;;9.60;99.90;;;;;;6246382;23;20450;-75
2021/04/21 07:40:30;;;;;;;117.35;74.05;;;9.60;99.90;;;;;;6246327;23;20210;-75
2021/04/21 07:43:11;;;;;;;118.53;75.30;;;9.70;99.90;;;;;;6246159;23;20188;-75
2021/04/21 07:46:01;;;;;;;117.75;74.72;;;9.70;99.90;;;;;;6245971;22;20264;-76
2021/04/21 07:48:36;;;;;;;113.78;72.93;;;9.50;99.90;;;;;;6246151;23;20152;-75
2021/04/21 07:51:16;;;;;;;105.82;71.25;;;9.60;99.90;;;;;;6246334;23;20168;-76
2021/04/21 07:53:49;;;;;;;103.40;68.57;;;9.70;99.90;;;;;;6246699;23;20156;-76
2021/04/21 07:56:16;;;;;;;105.18;66.45;;;9.60;99.90;;;;;;6245812;22;20211;-76
2021/04/21 07:58:42;;;;;;;97.22;66.82;;;9.90;99.90;;;;;;6246180;23;20197;-75
2021/04/21 08:01:08;;;;;;;88.87;62.73;;;10.10;99.90;;;;;;6246117;23;20157;-75
2021/04/21 08:03:35;;;;;;;98.13;62.35;;;10.20;99.90;;;;;;6219845;23;20364;-75
2021/04/21 08:06:01;;;;;;;90.00;63.65;;;10.30;99.90;;;;;;6245977;22;20525;-75
2021/04/21 08:08:29;;;;;;;87.13;60.97;;;10.50;99.90;;;;;;6246007;23;20650;-76
2021/04/21 08:10:54;;;;;;;86.30;60.75;;;10.70;99.90;;;;;;6246183;23;20145;-75
2021/04/21 08:13:39;;;;;;;72.53;55.77;;;10.70;99.90;;;;;;6246048;23;20164;-75
2021/04/21 08:16:18;;;;;;;76.03;54.87;;;11.00;99.90;;;;;;6245613;22;20214;-75
2021/04/21 08:18:44;;;;;;;74.70;54.30;;;11.30;99.90;;;;;;6246460;23;20367;-76
2021/04/21 08:21:10;;;;;;;70.10;52.37;;;11.50;99.90;;;;;;6246356;23;20373;-76
2021/04/21 08:23:37;;;;;;;68.73;53.43;;;11.70;99.90;;;;;;6246357;23;20391;-76
2021/04/21 08:26:03;;;;;;;61.60;49.10;;;11.90;99.90;;;;;;6245647;22;20194;-77
2021/04/21 08:28:28;;;;;;;56.03;46.70;;;12.30;99.90;;;;;;6219355;23;20376;-77
2021/04/21 08:30:59;;;;;;;53.27;45.30;;;12.50;99.90;;;;;;6245967;23;20454;-76
2021/04/21 08:33:30;;;;;;;57.17;45.83;;;12.00;99.90;;;;;;6245944;23;20191;-77
2021/04/21 08:35:56;;;;;;;57.23;47.70;;;12.00;99.90;;;;;;6245599;22;20388;-77
2021/04/21 08:38:28;;;;;;;59.20;47.63;;;12.10;99.90;;;;;;6245841;23;20375;-76
2021/04/21 08:40:54;;;;;;;61.07;48.10;;;12.00;99.90;;;;;;6218806;23;20145;-77
2021/04/21 08:43:20;;;;;;;62.37;51.30;;;12.20;99.90;;;;;;6245978;23;20772;-77
2021/04/21 08:45:46;;;;;;;63.40;48.37;;;12.10;99.90;;;;;;6245589;22;20180;-76
2021/04/21 08:48:13;;;;;;;61.37;46.63;;;12.10;99.90;;;;;;6245900;23;20738;-76
2021/04/21 08:50:40;;;;;;;53.77;44.00;;;12.00;99.90;;;;;;6218940;23;20380;-79
2021/04/21 08:53:08;;;;;;;62.53;45.37;;;11.90;99.90;;;;;;6245928;23;20383;-77
2021/04/21 08:55:34;;;;;;;63.13;48.83;;;12.10;99.90;;;;;;6245526;22;20401;-77
2021/04/21 08:58:03;;;;;;;60.63;45.30;;;12.50;99.90;;;;;;6219298;23;20832;-77
2021/04/21 09:00:29;;;;;;;55.27;44.17;;;12.40;99.90;;;;;;6218750;23;20379;-77
2021/04/21 09:02:55;;;;;;;53.27;42.53;;;12.40;99.90;;;;;;6245554;23;20512;-77
2021/04/21 09:05:21;;;;;;;54.37;42.80;;;12.40;99.90;;;;;;6245556;22;20390;-77
2021/04/21 09:07:47;;;;;;;55.10;45.10;;;12.60;99.90;;;;;;6246073;23;20145;-77
2021/04/21 09:10:16;;;;;;;60.97;44.73;;;12.60;99.90;;;;;;6246245;23;20379;-78
2021/04/21 09:12:43;;;;;;;55.60;42.27;;;12.70;99.90;;;;;;6245793;23;20247;-77
2021/04/21 09:15:11;;;;;;;58.40;43.10;;;13.10;99.90;;;;;;6219076;23;20469;-77
2021/04/21 09:17:46;;;;;;;54.57;44.50;;;13.20;99.90;;;;;;6219044;23;20404;-77
2021/04/21 09:20:14;;;;;;;55.10;42.40;;;13.40;99.90;;;;;;6218875;23;20372;-77
2021/04/21 09:23:15;;;;;;;41.80;35.87;;;13.60;99.90;;;;;;6245482;23;20418;-78
2021/04/21 09:25:58;;;;;;;45.70;36.27;;;13.20;99.90;;;;;;6218494;23;20410;-78
2021/04/21 09:28:24;;;;;;;42.77;34.83;;;13.70;99.90;;;;;;6218946;23;20375;-78
2021/04/21 09:30:56;;;;;;;34.30;27.27;;;14.20;99.90;;;;;;6245600;23;20738;-78
2021/04/21 09:33:29;;;;;;;33.53;26.63;;;14.00;99.90;;;;;;6245539;23;20160;-78
2021/04/21 09:35:55;;;;;;;31.90;26.37;;;14.00;99.90;;;;;;6219571;23;20469;-77
2021/04/21 09:38:27;;;;;;;36.43;27.70;;;13.80;99.90;;;;;;6245632;23;20433;-77
2021/04/21 09:41:14;;;;;;;36.87;29.50;;;13.90;99.90;;;;;;6218925;23;20395;-78
2021/04/21 09:43:41;;;;;;;38.83;30.40;;;13.90;99.90;;;;;;6245647;23;20367;-77
2021/04/21 09:46:17;;;;;;;37.27;27.70;;;14.00;99.90;;;;;;6193745;23;20400;-77
2021/04/21 09:48:45;;;;;;;39.13;30.60;;;14.20;99.90;;;;;;6245425;23;20661;-78
2021/04/21 09:51:16;;;;;;;35.70;28.60;;;14.20;99.90;;;;;;6245448;23;20764;-78
2021/04/21 09:53:47;;;;;;;36.40;31.07;;;14.20;99.90;;;;;;6220145;23;20371;-78
2021/04/21 09:56:21;;;;;;;42.50;32.10;;;14.50;99.90;;;;;;6246799;22;20384;-77
2021/04/21 09:58:50;;;;;;;46.57;34.10;;;14.30;99.90;;;;;;6247818;23;20323;-78
2021/04/21 10:01:19;;;;;;;40.73;32.10;;;14.50;99.90;;;;;;6220338;23;20383;-79
2021/04/21 10:03:46;;;;;;;42.97;32.67;;;14.40;99.90;;;;;;6247907;23;20368;-78
2021/04/21 10:06:22;;;;;;;38.20;32.30;;;14.50;99.90;;;;;;6220377;23;20496;-77
2021/04/21 10:08:48;;;;;;;40.27;32.77;;;14.30;99.90;;;;;;6247501;23;20399;-78
2021/04/21 10:11:14;;;;;;;41.50;31.63;;;14.90;99.90;;;;;;6247102;23;20426;-78
2021/04/21 10:13:54;;;;;;;35.60;31.30;;;15.10;99.90;;;;;;6247697;23;20338;-79
2021/04/21 10:16:21;;;;;;;36.80;32.47;;;15.30;99.90;;;;;;6220319;23;20165;-78
2021/04/21 10:18:48;;;;;;;37.90;32.27;;;15.00;99.90;;;;;;6247172;23;20686;-78
2021/04/21 10:21:16;;;;;;;40.97;33.50;;;15.40;99.90;;;;;;6247217;23;20704;-78
2021/04/21 10:23:46;;;;;;;41.37;32.33;;;15.50;99.90;;;;;;6220277;23;20339;-77
2021/04/21 10:26:14;;;;;;;34.97;30.57;;;15.70;99.90;;;;;;6246726;22;20392;-78
2021/04/21 10:28:42;;;;;;;37.60;24.60;;;15.90;99.90;;;;;;6220475;23;20383;-78
2021/04/21 10:31:17;;;;;;;39.20;32.50;;;16.10;99.90;;;;;;6247280;23;20350;-78
2021/04/21 10:33:43;;;;;;;35.27;31.40;;;16.30;99.90;;;;;;6246922;23;20732;-79
2021/04/21 10:36:10;;;;;;;36.73;30.37;;;16.50;99.90;;;;;;6246816;22;20384;-79
2021/04/21 10:38:41;;;;;;;43.07;34.50;;;16.70;99.90;;;;;;6247058;23;20145;-79
2021/04/21 10:41:28;;;;;;;36.53;32.03;;;17.00;99.90;;;;;;6247000;23;20383;-79
2021/04/21 10:44:10;;;;;;;35.47;31.67;;;17.80;99.90;;;;;;6247057;23;20648;-79
2021/04/21 10:47:04;;;;;;;35.70;31.70;;;17.20;99.90;;;;;;6246546;22;20705;-78
2021/04/21 10:50:00;;;;;;;35.90;32.00;;;17.00;99.90;;;;;;6219831;23;20840;-78
2021/04/21 10:52:26;;;;;;;37.83;32.23;;;17.30;99.90;;;;;;6219862;23;20451;-78
2021/04/21 10:54:55;;;;;;;37.70;31.50;;;17.20;99.90;;;;;;6246591;23;20381;-78
2021/04/21 10:57:57;;;;;;;38.43;31.27;;;17.50;99.90;;;;;;6236345;22;20204;-78
2021/04/21 11:01:07;;;;;;;38.70;31.67;;;17.90;99.90;;;;;;6246865;23;20716;-78
2021/04/21 11:04:30;;;;;;;36.20;29.43;;;18.30;99.90;;;;;;6246750;23;20382;-78
2021/04/21 11:06:56;;;;;;;40.20;29.90;;;19.10;99.90;;;;;;6242200;22;20725;-79
2021/04/21 11:09:56;;;;;;;35.40;31.80;;;18.70;99.90;;;;;;6246827;23;20421;-78
2021/04/21 11:13:15;;;;;;;34.73;28.60;;;18.30;99.90;;;;;;6219931;23;20351;-78
2021/04/21 11:15:51;;;;;;;25.00;22.43;;;18.50;99.90;;;;;;6246347;22;20672;-78
2021/04/21 11:18:27;;;;;;;25.17;21.73;;;19.20;99.90;;;;;;6246558;23;20414;-77
2021/04/21 11:20:54;;;;;;;21.57;19.37;;;19.90;99.90;;;;;;6219983;23;20371;-77
2021/04/21 11:24:09;;;;;;;24.33;20.70;;;20.10;99.90;;;;;;6220044;23;20398;-77
2021/04/21 11:26:45;;;;;;;21.20;18.93;;;19.60;99.90;;;;;;6245272;22;20492;-76
2021/04/21 11:29:25;;;;;;;22.23;18.10;;;19.60;99.90;;;;;;6246487;23;20418;-76
2021/04/21 11:31:51;;;;;;;18.70;16.80;;;19.60;99.90;;;;;;6219611;23;20474;-78
2021/04/21 11:34:33;;;;;;;20.10;18.10;;;19.90;99.90;;;;;;6220392;23;20380;-79
2021/04/21 11:37:19;;;;;;;19.03;17.17;;;19.60;99.90;;;;;;6246433;22;20722;-76
2021/04/21 11:39:58;;;;;;;18.70;16.90;;;19.70;99.90;;;;;;6246577;23;20401;-76
2021/04/21 11:42:36;;;;;;;16.93;15.43;;;20.20;99.90;;;;;;6246244;23;20407;-76
2021/04/21 11:45:20;;;;;;;16.43;14.93;;;20.30;99.90;;;;;;6219840;23;20379;-77
2021/04/21 11:47:49;;;;;;;18.60;16.70;;;21.10;99.90;;;;;;6246589;23;20368;-75
2021/04/21 11:50:21;;;;;;;17.70;15.87;;;21.10;99.90;;;;;;6246343;23;20677;-77
2021/04/21 11:53:13;;;;;;;20.50;18.40;;;21.30;99.90;;;;;;6246264;23;20386;-78
2021/04/21 11:55:48;;;;;;;13.73;12.43;;;21.30;99.90;;;;;;6218953;23;20396;-78
2021/04/21 11:58:36;;;;;;;16.00;14.50;;;22.00;99.80;;;;;;6246123;23;20393;-76
2021/04/21 12:01:17;;;;;;;13.80;12.33;;;21.50;98.80;;;;;;6246254;23;20356;-77
2021/04/21 12:03:45;;;;;;;15.73;14.23;;;22.00;97.90;;;;;;6246482;23;20674;-79
2021/04/21 12:06:18;;;;;;;14.43;13.07;;;22.20;96.60;;;;;;6245647;22;20899;-79
2021/04/21 12:08:51;;;;;;;15.20;11.90;;;21.90;97.50;;;;;;6246374;23;20358;-79
2021/04/21 12:11:33;;;;;;;14.00;12.23;;;22.30;94.30;;;;;;6246563;23;20647;-80
2021/04/21 12:13:59;;;;;;;14.27;11.70;;;22.60;93.00;;;;;;6221738;23;20407;-79
2021/04/21 12:16:28;;;;;;;16.37;11.97;;;22.70;94.00;;;;;;6244890;22;20392;-79
2021/04/21 12:18:59;;;;;;;13.50;11.60;;;23.10;93.90;;;;;;6219323;23;20206;-79
2021/04/21 12:21:35;;;;;;;13.67;12.40;;;22.50;88.80;;;;;;6246098;23;20871;-79
2021/04/21 12:24:06;;;;;;;14.50;12.27;;;22.20;86.00;;;;;;6246202;23;20446;-79
2021/04/21 12:26:34;;;;;;;12.90;11.50;;;22.30;87.50;;;;;;6218808;23;20464;-79
2021/04/21 12:29:04;;;;;;;13.63;12.23;;;22.20;86.40;;;;;;6219701;23;20665;-79
2021/04/21 12:31:32;;;;;;;13.27;12.03;;;22.60;92.00;;;;;;6246247;23;20828;-77
2021/04/21 12:34:00;;;;;;;12.17;10.93;;;22.50;89.40;;;;;;6245824;23;20778;-76
2021/04/21 12:36:28;;;;;;;19.83;12.23;;;22.60;91.20;;;;;;6245314;22;20446;-79
2021/04/21 12:39:11;;;;;;;18.60;12.93;;;22.30;85.30;;;;;;6219249;23;20383;-77
2021/04/21 12:41:39;;;;;;;12.70;11.50;;;22.10;81.80;;;;;;6245715;23;20407;-79
2021/04/21 12:44:19;;;;;;;14.30;11.80;;;22.10;85.50;;;;;;6245911;23;20448;-79
2021/04/21 12:46:47;;;;;;;12.20;11.03;;;21.40;84.00;;;;;;6245421;22;20394;-78
2021/04/21 12:49:13;;;;;;;13.50;11.03;;;21.20;80.80;;;;;;6219158;23;20369;-79
2021/04/21 12:51:47;;;;;;;14.87;11.70;;;21.90;82.30;;;;;;6245805;23;20386;-77
2021/04/21 12:54:38;;;;;;;13.27;11.87;;;22.70;81.70;;;;;;6246166;23;20399;-79
2021/04/21 12:57:05;;;;;;;12.30;10.20;;;22.40;76.60;;;;;;6201494;23;20427;-79
2021/04/21 12:59:45;;;;;;;11.27;10.27;;;22.40;76.70;;;;;;6246180;23;20707;-79
2021/04/21 13:02:15;;;;;;;11.43;10.33;;;23.20;80.70;;;;;;6245865;23;20488;-77
2021/04/21 13:04:43;;;;;;;11.40;10.10;;;22.70;84.30;;;;;;6245340;23;20701;-77
2021/04/21 13:07:26;;;;;;;13.70;11.57;;;22.60;86.20;;;;;;6245847;22;20430;-79
2021/04/21 13:10:07;;;;;;;15.90;11.10;;;22.80;90.00;;;;;;6245856;23;20360;-77
2021/04/21 13:12:35;;;;;;;14.13;11.83;;;22.60;90.30;;;;;;6245883;23;20376;-79
2021/04/21 13:15:11;;;;;;;13.97;12.70;;;22.40;91.10;;;;;;6245355;23;20375;-78
2021/04/21 13:17:49;;;;;;;12.70;11.40;;;22.40;90.20;;;;;;6219093;23;20406;-79
2021/04/21 13:20:17;;;;;;;13.27;11.97;;;22.30;90.80;;;;;;6246125;23;20359;-77
2021/04/21 13:22:45;;;;;;;13.70;12.30;;;22.60;87.00;;;;;;6245541;23;20416;-77
2021/04/21 13:25:15;;;;;;;12.70;11.00;;;21.90;90.00;;;;;;6245701;23;20407;-77
2021/04/21 13:27:41;;;;;;;12.60;11.40;;;22.10;89.10;;;;;;6246592;23;20434;-77
2021/04/21 13:30:18;;;;;;;16.00;11.90;;;22.20;89.30;;;;;;6247734;23;20482;-77
2021/04/21 13:32:46;;;;;;;13.40;12.00;;;22.70;85.50;;;;;;6247600;23;20433;-77
2021/04/21 13:35:14;;;;;;;11.97;10.70;;;22.30;81.70;;;;;;6247255;23;20441;-77
2021/04/21 13:37:40;;;;;;;13.70;11.53;;;21.70;83.30;;;;;;6247760;23;20674;-77
2021/04/21 13:40:09;;;;;;;12.23;11.03;;;21.60;90.20;;;;;;6247733;23;20387;-77
2021/04/21 13:42:37;;;;;;;12.27;11.03;;;22.40;87.30;;;;;;6220545;23;20910;-77
2021/04/21 13:45:03;;;;;;;12.83;10.50;;;22.80;86.70;;;;;;6247173;23;20367;-80
2021/04/21 13:47:29;;;;;;;13.40;9.53;;;22.10;79.20;;;;;;6195832;23;20779;-80
2021/04/21 13:49:55;;;;;;;16.10;10.30;;;22.10;76.20;;;;;;6221095;23;20372;-77
2021/04/21 13:52:21;;;;;;;10.47;9.47;;;21.40;77.00;;;;;;6247509;23;20153;-79
2021/04/21 13:54:46;;;;;;;9.93;8.93;;;21.80;77.70;;;;;;6246947;23;20574;-79
2021/04/21 13:57:12;;;;;;;11.67;10.47;;;22.10;75.70;;;;;;6220373;23;20423;-78
2021/04/21 13:59:39;;;;;;;11.37;10.27;;;22.00;78.60;;;;;;6247496;23;20178;-80
2021/04/21 14:02:05;;;;;;;11.13;9.93;;;22.80;77.40;;;;;;6220336;23;20534;-78
2021/04/21 14:04:31;;;;;;;11.53;10.43;;;22.60;78.10;;;;;;6247262;23;20376;-79
2021/04/21 14:06:57;;;;;;;14.43;11.03;;;22.50;73.70;;;;;;6247240;22;20422;-82
2021/04/21 14:09:22;;;;;;;11.83;10.53;;;22.50;73.80;;;;;;6247325;23;20484;-79
2021/04/21 14:11:48;;;;;;;14.10;10.80;;;23.30;76.30;;;;;;6247409;23;20481;-78
2021/04/21 14:14:14;;;;;;;16.47;12.97;;;23.10;77.40;;;;;;6247318;23;20160;-77
2021/04/21 14:16:39;;;;;;;16.60;13.40;;;23.30;74.90;;;;;;6220145;23;20371;-76
2021/04/21 14:19:05;;;;;;;16.60;14.43;;;23.00;75.40;;;;;;6247370;23;20495;-77
2021/04/21 14:21:31;;;;;;;14.73;12.87;;;22.90;77.30;;;;;;6220277;23;20226;-80
2021/04/21 14:23:58;;;;;;;15.63;13.10;;;22.30;77.20;;;;;;6247180;23;20218;-79
2021/04/21 14:26:23;;;;;;;16.90;15.10;;;22.10;76.10;;;;;;6219809;23;20407;-78
2021/04/21 14:28:49;;;;;;;15.57;13.97;;;22.70;75.40;;;;;;6247235;23;20368;-76
2021/04/21 14:31:14;;;;;;;21.10;16.93;;;22.20;78.00;;;;;;6246953;23;20145;-77
2021/04/21 14:33:40;;;;;;;17.00;15.17;;;21.60;79.10;;;;;;6247323;23;20149;-79
2021/04/21 14:36:07;;;;;;;20.83;16.60;;;21.60;84.10;;;;;;6246493;22;20247;-77
2021/04/21 14:38:32;;;;;;;17.53;15.50;;;21.80;83.90;;;;;;6220104;23;20491;-77
2021/04/21 14:41:04;;;;;;;18.50;16.60;;;22.00;84.50;;;;;;6246821;23;20382;-80
2021/04/21 14:43:30;;;;;;;17.97;15.30;;;21.50;83.70;;;;;;6246792;23;20164;-82
2021/04/21 14:45:57;;;;;;;18.40;16.50;;;22.50;86.90;;;;;;6246986;22;20449;-80
2021/04/21 14:48:24;;;;;;;19.07;16.87;;;22.10;84.10;;;;;;6220288;23;20145;-77
2021/04/21 14:50:50;;;;;;;21.43;17.43;;;21.10;85.30;;;;;;6246800;23;20372;-78